createdAt,value
2019-03-01T00:00:50.607Z,1.1
2019-03-01T00:02:00.117Z,1
2019-03-01T00:03:09.623Z,1.3
2019-03-01T00:04:19.130Z,1.1
2019-03-01T00:05:28.646Z,1.6
2019-03-01T00:06:38.168Z,0.9
2019-03-01T00:07:47.674Z,1.2
2019-03-01T00:08:57.179Z,1.2
2019-03-01T00:10:06.689Z,1.1
2019-03-01T00:11:16.194Z,1.4
2019-03-01T00:12:25.707Z,1.3
2019-03-01T00:13:35.204Z,1.2
2019-03-01T00:14:44.704Z,1.5
2019-03-01T00:15:54.208Z,1
2019-03-01T00:17:03.722Z,1.1
2019-03-01T00:18:13.231Z,1.1
2019-03-01T00:19:22.736Z,0.9
2019-03-01T00:20:32.237Z,1
2019-03-01T00:21:41.766Z,1.2
2019-03-01T00:22:51.271Z,1
2019-03-01T00:24:00.776Z,1
2019-03-01T00:25:10.272Z,1.3
2019-03-01T00:26:19.776Z,1.1
2019-03-01T00:27:29.290Z,1.1
2019-03-01T00:28:38.792Z,1.3
2019-03-01T00:29:48.291Z,0.9
2019-03-01T00:30:57.797Z,1
2019-03-01T00:32:07.317Z,1
2019-03-01T00:33:16.820Z,1.3
2019-03-01T00:34:26.323Z,1
2019-03-01T00:35:35.814Z,1.3
2019-03-01T00:36:45.313Z,1.1
2019-03-01T00:37:54.834Z,1.2
2019-03-01T00:39:04.334Z,1.3
2019-03-01T00:40:13.854Z,1.3
2019-03-01T00:41:23.348Z,0.9
2019-03-01T00:42:32.865Z,1
2019-03-01T00:43:42.383Z,0.8
2019-03-01T00:44:51.872Z,1.1
2019-03-01T00:46:01.386Z,1
2019-03-01T00:47:10.900Z,1.1
2019-03-01T00:48:20.405Z,1.2
2019-03-01T00:49:29.914Z,1.3
2019-03-01T00:50:39.430Z,0.9
2019-03-01T00:51:48.931Z,0.8
2019-03-01T00:52:58.436Z,1.1
2019-03-01T00:54:07.933Z,1.3
2019-03-01T00:55:17.462Z,1.2
2019-03-01T00:56:26.958Z,0.8
2019-03-01T00:57:36.464Z,0.8
2019-03-01T00:58:45.968Z,1
2019-03-01T00:59:55.459Z,1
2019-03-01T01:01:04.989Z,0.9
2019-03-01T01:02:14.488Z,0.8
2019-03-01T01:03:24.049Z,1.1
2019-03-01T01:04:33.530Z,1.1
2019-03-01T01:05:43.039Z,0.7
2019-03-01T01:06:52.548Z,0.9
2019-03-01T01:08:02.086Z,0.8
2019-03-01T01:09:11.593Z,1
2019-03-01T01:10:21.118Z,0.7
2019-03-01T01:11:30.624Z,0.7
2019-03-01T01:12:40.123Z,0.6
2019-03-01T01:13:49.638Z,0.5
2019-03-01T01:14:59.156Z,0.6
2019-03-01T01:16:08.663Z,0.6
2019-03-01T01:17:18.168Z,0.5
2019-03-01T01:18:27.678Z,0.4
2019-03-01T01:19:37.193Z,0.6
2019-03-01T01:20:46.702Z,0.6
2019-03-01T01:21:56.206Z,0.5
2019-03-01T01:23:05.713Z,0.5
2019-03-01T01:24:15.229Z,0.3
2019-03-01T01:25:24.724Z,0.5
2019-03-01T01:26:34.237Z,0.5
2019-03-01T01:27:43.930Z,0.6
2019-03-01T01:28:53.249Z,0.5
2019-03-01T01:30:02.757Z,0.3
2019-03-01T01:31:12.258Z,0.5
2019-03-01T01:32:21.782Z,0.4
2019-03-01T01:33:31.256Z,0.3
2019-03-01T01:34:40.759Z,0.3
2019-03-01T01:35:50.262Z,0.5
2019-03-01T01:36:59.775Z,0.5
2019-03-01T01:38:09.282Z,0.4
2019-03-01T01:39:18.784Z,0.4
2019-03-01T01:40:28.296Z,0.2
2019-03-01T01:41:37.820Z,0.3
2019-03-01T01:42:47.326Z,0.3
2019-03-01T01:43:56.836Z,0.5
2019-03-01T01:45:06.353Z,0.4
2019-03-01T01:46:15.859Z,0.2
2019-03-01T01:47:25.375Z,0.4
2019-03-01T01:48:34.868Z,0.3
2019-03-01T01:49:44.364Z,0.5
2019-03-01T01:50:53.868Z,0.3
2019-03-01T01:52:03.393Z,0.4
2019-03-01T01:53:12.890Z,0.3
2019-03-01T01:54:22.389Z,0.3
2019-03-01T01:55:31.897Z,0.2
2019-03-01T01:56:41.410Z,0.2
2019-03-01T01:57:50.914Z,0.5
2019-03-01T01:59:00.412Z,0.5
2019-03-01T02:00:09.915Z,0.3
2019-03-01T02:01:19.416Z,0.3
2019-03-01T02:02:28.944Z,0.4
2019-03-01T02:03:38.454Z,0.6
2019-03-01T02:04:47.965Z,0.3
2019-03-01T02:05:57.467Z,0.3
2019-03-01T02:07:06.997Z,0.3
2019-03-01T02:08:16.500Z,0.2
2019-03-01T02:09:26.033Z,0.3
2019-03-01T02:10:35.546Z,0.2
2019-03-01T02:11:45.048Z,0.4
2019-03-01T02:12:54.582Z,0.3
2019-03-01T02:14:04.081Z,0.2
2019-03-01T02:15:13.577Z,0.3
2019-03-01T02:16:23.082Z,0.3
2019-03-01T02:17:32.604Z,0.3
2019-03-01T02:18:42.110Z,0.3
2019-03-01T02:19:51.705Z,0.4
2019-03-01T02:21:01.204Z,0.4
2019-03-01T02:22:10.722Z,0.3
2019-03-01T02:23:20.224Z,0.1
2019-03-01T02:24:29.725Z,0.3
2019-03-01T02:25:39.234Z,0.3
2019-03-01T02:26:48.741Z,0.4
2019-03-01T02:27:58.261Z,0.2
2019-03-01T02:29:07.750Z,0.3
2019-03-01T02:30:17.248Z,0.4
2019-03-01T02:31:26.753Z,0.4
2019-03-01T02:32:36.274Z,0.2
2019-03-01T02:33:45.781Z,0.3
2019-03-01T02:34:55.282Z,0.2
2019-03-01T02:36:04.793Z,0.2
2019-03-01T02:37:14.296Z,0.2
2019-03-01T02:38:23.813Z,0.3
2019-03-01T02:39:33.298Z,0.1
2019-03-01T02:40:42.819Z,0.2
2019-03-01T02:41:52.311Z,0.4
2019-03-01T02:43:01.828Z,0.1
2019-03-01T02:44:11.330Z,0.2
2019-03-01T02:45:20.825Z,0.4
2019-03-01T02:46:30.327Z,0.2
2019-03-01T02:47:39.860Z,0.3
2019-03-01T02:48:49.368Z,0.2
2019-03-01T02:49:58.878Z,0.3
2019-03-01T02:51:08.395Z,0.3
2019-03-01T02:52:17.898Z,0.3
2019-03-01T02:53:27.434Z,0.3
2019-03-01T02:54:36.917Z,0.3
2019-03-01T02:55:46.426Z,0.3
2019-03-01T02:56:55.921Z,0.3
2019-03-01T02:58:05.437Z,0.2
2019-03-01T02:59:14.945Z,0.2
2019-03-01T03:00:24.454Z,0.2
2019-03-01T03:01:34.023Z,0.4
2019-03-01T03:02:43.535Z,0.3
2019-03-01T03:03:53.038Z,0.4
2019-03-01T03:05:02.569Z,0.3
2019-03-01T03:06:12.088Z,0.4
2019-03-01T03:07:21.592Z,0.2
2019-03-01T03:08:31.141Z,0.1
2019-03-01T03:09:40.648Z,0.3
2019-03-01T03:10:50.153Z,0.2
2019-03-01T03:11:59.662Z,0.4
2019-03-01T03:13:09.157Z,0.2
2019-03-01T03:14:18.693Z,0.3
2019-03-01T03:15:28.185Z,0.4
2019-03-01T03:16:37.688Z,0.2
2019-03-01T03:17:47.208Z,0.5
2019-03-01T03:18:56.738Z,0.1
2019-03-01T03:20:06.237Z,0.4
2019-03-01T03:21:15.742Z,0.2
2019-03-01T03:22:25.263Z,0.2
2019-03-01T03:23:34.793Z,0.1
2019-03-01T03:24:44.306Z,0.3
2019-03-01T03:25:54.807Z,0.3
2019-03-01T03:27:04.330Z,0.3
2019-03-01T03:28:13.854Z,0.2
2019-03-01T03:29:23.354Z,0.2
2019-03-01T03:30:32.866Z,0.3
2019-03-01T03:31:42.387Z,0.3
2019-03-01T03:32:51.881Z,0.3
2019-03-01T03:34:01.386Z,0.2
2019-03-01T03:35:10.890Z,0.3
2019-03-01T03:36:20.401Z,0.5
2019-03-01T03:37:29.900Z,0.2
2019-03-01T03:38:39.416Z,0.4
2019-03-01T03:39:48.919Z,0.2
2019-03-01T03:40:59.416Z,0.2
2019-03-01T03:42:08.938Z,0.3
2019-03-01T03:43:18.442Z,0.4
2019-03-01T03:44:27.945Z,0.2
2019-03-01T03:45:37.449Z,0.3
2019-03-01T03:46:46.962Z,0.5
2019-03-01T03:47:56.470Z,0.4
2019-03-01T03:49:05.990Z,0.4
2019-03-01T03:50:15.498Z,0.4
2019-03-01T03:51:25.003Z,0.5
2019-03-01T03:52:34.510Z,0.8
2019-03-01T03:53:44.040Z,0.3
2019-03-01T03:54:53.541Z,0.4
2019-03-01T03:56:03.048Z,0.3
2019-03-01T03:57:12.554Z,0.2
2019-03-01T03:58:22.084Z,0.5
2019-03-01T03:59:31.586Z,0.3
2019-03-01T04:00:41.093Z,0.2
2019-03-01T04:01:50.619Z,0.1
2019-03-01T04:03:00.112Z,0.3
2019-03-01T04:04:09.697Z,0.3
2019-03-01T04:05:19.203Z,0.4
2019-03-01T04:06:28.708Z,0.1
2019-03-01T04:07:38.216Z,0.3
2019-03-01T04:08:47.735Z,0.5
2019-03-01T04:09:57.237Z,0.2
2019-03-01T04:11:06.748Z,0.2
2019-03-01T04:12:16.248Z,0.1
2019-03-01T04:13:25.762Z,0.3
2019-03-01T04:14:35.267Z,0.3
2019-03-01T04:15:44.833Z,0.2
2019-03-01T04:16:54.336Z,0.4
2019-03-01T04:18:03.843Z,0.2
2019-03-01T04:19:13.422Z,0.3
2019-03-01T04:20:22.905Z,0.2
2019-03-01T04:21:32.409Z,0.4
2019-03-01T04:22:41.922Z,0.4
2019-03-01T04:23:51.438Z,0.3
2019-03-01T04:25:00.933Z,0.2
2019-03-01T04:26:10.438Z,0.1
2019-03-01T04:27:19.948Z,0.2
2019-03-01T04:28:29.452Z,0.2
2019-03-01T04:29:38.977Z,0.3
2019-03-01T04:30:48.493Z,0.2
2019-03-01T04:31:57.996Z,0.2
2019-03-01T04:33:07.491Z,0.2
2019-03-01T04:34:17.004Z,0.2
2019-03-01T04:35:26.515Z,0.2
2019-03-01T04:36:36.016Z,0.4
2019-03-01T04:37:45.528Z,0.1
2019-03-01T04:38:55.045Z,0.2
2019-03-01T04:40:04.563Z,0.2
2019-03-01T04:41:14.095Z,0.3
2019-03-01T04:42:23.604Z,0.3
2019-03-01T04:43:33.137Z,0.2
2019-03-01T04:44:42.650Z,0.3
2019-03-01T04:45:52.159Z,0.2
2019-03-01T04:47:01.683Z,0.8
2019-03-01T04:48:11.195Z,0.2
2019-03-01T04:49:21.736Z,0.2
2019-03-01T04:50:31.266Z,0.1
2019-03-01T04:51:40.746Z,0.5
2019-03-01T04:52:50.256Z,0.1
2019-03-01T04:53:59.775Z,0.2
2019-03-01T04:55:09.281Z,0.4
2019-03-01T04:56:18.787Z,0.3
2019-03-01T04:57:28.297Z,0.3
2019-03-01T04:58:37.815Z,0.2
2019-03-01T04:59:47.321Z,0.2
2019-03-01T05:00:56.829Z,0.4
2019-03-01T05:02:06.339Z,0.3
2019-03-01T05:03:15.853Z,0.2
2019-03-01T05:04:25.358Z,0.1
2019-03-01T05:05:34.867Z,0.2
2019-03-01T05:06:44.388Z,0.2
2019-03-01T05:07:53.911Z,0.4
2019-03-01T05:09:03.418Z,0.3
2019-03-01T05:10:12.932Z,0.1
2019-03-01T05:11:22.434Z,0.4
2019-03-01T05:12:31.951Z,0.3
2019-03-01T05:13:41.460Z,0.2
2019-03-01T05:14:50.972Z,0.2
2019-03-01T05:16:00.501Z,0.2
2019-03-01T05:17:10.017Z,0.4
2019-03-01T05:18:19.615Z,0.2
2019-03-01T05:19:29.131Z,0.3
2019-03-01T05:20:38.640Z,0.3
2019-03-01T05:21:48.172Z,0.3
2019-03-01T05:22:57.681Z,0.2
2019-03-01T05:24:07.189Z,0.1
2019-03-01T05:25:16.689Z,0.2
2019-03-01T05:26:26.193Z,0.4
2019-03-01T05:27:35.710Z,0.1
2019-03-01T05:28:45.214Z,0.1
2019-03-01T05:29:54.718Z,0.2
2019-03-01T05:31:04.222Z,0.1
2019-03-01T05:32:13.749Z,0.2
2019-03-01T05:33:23.400Z,0.2
2019-03-01T05:34:32.919Z,0.2
2019-03-01T05:35:42.438Z,0.3
2019-03-01T05:36:51.977Z,0.4
2019-03-01T05:38:01.490Z,0.2
2019-03-01T05:39:10.990Z,0.3
2019-03-01T05:40:20.487Z,0.2
2019-03-01T05:41:30.006Z,0.1
2019-03-01T05:42:39.534Z,0.3
2019-03-01T05:43:49.043Z,0.1
2019-03-01T05:45:00.435Z,0.1
2019-03-01T05:46:09.081Z,0.1
2019-03-01T05:47:18.598Z,0.1
2019-03-01T05:48:28.110Z,0.1
2019-03-01T05:49:37.638Z,0.1
2019-03-01T05:50:47.175Z,0.2
2019-03-01T05:51:56.761Z,0.2
2019-03-01T05:53:06.267Z,0.1
2019-03-01T05:54:15.774Z,0.2
2019-03-01T05:55:25.275Z,0.2
2019-03-01T05:56:34.780Z,0.2
2019-03-01T05:57:44.302Z,0.1
2019-03-01T05:58:53.812Z,0.3
2019-03-01T06:00:03.327Z,0.2
2019-03-01T06:01:12.819Z,0
2019-03-01T06:02:22.339Z,0
2019-03-01T06:03:31.853Z,0.1
2019-03-01T06:04:41.355Z,0.1
2019-03-01T06:05:50.865Z,0.1
2019-03-01T06:07:00.375Z,0.1
2019-03-01T06:08:09.897Z,0.1
2019-03-01T06:09:19.409Z,0.1
2019-03-01T06:10:28.916Z,0
2019-03-01T06:11:38.427Z,0.1
2019-03-01T06:12:47.943Z,0.1
2019-03-01T06:13:57.443Z,0.2
2019-03-01T06:15:06.949Z,0.1
2019-03-01T06:16:16.460Z,0.1
2019-03-01T06:17:25.980Z,0
2019-03-01T06:18:35.498Z,0.1
2019-03-01T06:19:45.006Z,0.2
2019-03-01T06:20:54.522Z,0
2019-03-01T06:22:04.029Z,0.3
2019-03-01T06:23:13.550Z,0.1
2019-03-01T06:24:23.068Z,0.1
2019-03-01T06:25:32.576Z,0.3
2019-03-01T06:26:42.082Z,0
2019-03-01T06:27:51.598Z,0.1
2019-03-01T06:29:01.144Z,0.2
2019-03-01T06:30:11.673Z,0.4
2019-03-01T06:31:21.162Z,0.4
2019-03-01T06:32:30.694Z,0.3
2019-03-01T06:33:40.229Z,0.2
2019-03-01T06:34:49.729Z,0.1
2019-03-01T06:35:59.233Z,0.3
2019-03-01T06:37:08.740Z,0.2
2019-03-01T06:38:18.280Z,0.4
2019-03-01T06:39:27.781Z,0.4
2019-03-01T06:40:37.311Z,0.2
2019-03-01T06:41:46.828Z,0.2
2019-03-01T06:42:56.344Z,0.2
2019-03-01T06:44:05.863Z,0.3
2019-03-01T06:45:15.369Z,0.2
2019-03-01T06:46:24.883Z,0.3
2019-03-01T06:47:34.402Z,0.2
2019-03-01T06:48:43.919Z,0.3
2019-03-01T06:49:53.425Z,0.1
2019-03-01T06:51:02.932Z,0.2
2019-03-01T06:52:12.435Z,0.3
2019-03-01T06:53:21.970Z,0.3
2019-03-01T06:54:31.474Z,0.1
2019-03-01T06:55:40.975Z,0.3
2019-03-01T06:56:50.489Z,1.5
2019-03-01T06:58:00.010Z,0.8
2019-03-01T06:59:09.508Z,0.2
2019-03-01T07:00:19.011Z,0.1
2019-03-01T07:01:28.517Z,0.1
2019-03-01T07:02:38.042Z,0.3
2019-03-01T07:03:47.547Z,0.4
2019-03-01T07:04:57.072Z,0.4
2019-03-01T07:06:06.570Z,0.2
2019-03-01T07:07:16.074Z,0.2
2019-03-01T07:08:25.597Z,0.1
2019-03-01T07:09:35.109Z,0.6
2019-03-01T07:10:44.620Z,0.1
2019-03-01T07:11:54.150Z,0.2
2019-03-01T07:13:03.664Z,0.1
2019-03-01T07:14:13.190Z,0.1
2019-03-01T07:15:22.694Z,0.2
2019-03-01T07:16:32.206Z,0.2
2019-03-01T07:17:41.726Z,0.3
2019-03-01T07:18:51.248Z,0.1
2019-03-01T07:20:00.763Z,0.1
2019-03-01T07:21:10.267Z,0.3
2019-03-01T07:22:19.774Z,0.3
2019-03-01T07:23:36.451Z,0.2
2019-03-01T07:24:39.781Z,0.2
2019-03-01T07:25:49.265Z,0.2
2019-03-01T07:26:58.776Z,0.1
2019-03-01T07:28:08.303Z,0.1
2019-03-01T07:29:17.812Z,0.1
2019-03-01T07:30:27.315Z,0.1
2019-03-01T07:31:36.836Z,0.2
2019-03-01T07:32:46.337Z,0.1
2019-03-01T07:33:55.858Z,0.1
2019-03-01T07:35:05.364Z,0.1
2019-03-01T07:36:14.874Z,0.2
2019-03-01T07:37:24.373Z,0.2
2019-03-01T07:38:33.891Z,0.2
2019-03-01T07:39:43.453Z,0.3
2019-03-01T07:40:52.910Z,0.3
2019-03-01T07:42:02.444Z,0.2
2019-03-01T07:43:11.954Z,0.2
2019-03-01T07:44:21.486Z,0.1
2019-03-01T07:45:30.995Z,0.2
2019-03-01T07:46:40.505Z,0.2
2019-03-01T07:47:50.018Z,0.3
2019-03-01T07:48:59.533Z,0.1
2019-03-01T07:50:09.050Z,0.2
2019-03-01T07:51:18.556Z,0.2
2019-03-01T07:52:28.116Z,0.4
2019-03-01T07:53:41.694Z,0.1
2019-03-01T07:54:49.367Z,0.2
2019-03-01T07:56:00.663Z,0.1
2019-03-01T07:57:11.402Z,0.7
2019-03-01T07:58:21.480Z,0.1
2019-03-01T07:59:31.782Z,0.2
2019-03-01T08:00:41.107Z,0.2
2019-03-01T08:01:50.672Z,0.3
2019-03-01T08:03:00.233Z,1.2
2019-03-01T08:04:09.858Z,0.3
2019-03-01T08:05:19.407Z,0.2
2019-03-01T08:06:29.077Z,0.2
2019-03-01T08:07:38.703Z,0.4
2019-03-01T08:08:48.303Z,0.3
2019-03-01T08:09:57.985Z,0.2
2019-03-01T08:11:07.701Z,0.2
2019-03-01T08:12:17.196Z,0.3
2019-03-01T08:13:27.001Z,0.3
2019-03-01T08:14:36.326Z,0.3
2019-03-01T08:15:45.995Z,0.3
2019-03-01T08:16:56.033Z,0.5
2019-03-01T08:18:08.108Z,0.4
2019-03-01T08:19:22.245Z,0.4
2019-03-01T08:20:30.304Z,0.2
2019-03-01T08:21:37.730Z,0.3
2019-03-01T08:22:48.825Z,0.3
2019-03-01T08:23:57.893Z,0.2
2019-03-01T08:25:07.434Z,0.2
2019-03-01T08:26:17.027Z,0.1
2019-03-01T08:27:26.588Z,0.2
2019-03-01T08:28:36.207Z,0.2
2019-03-01T08:29:45.786Z,0.2
2019-03-01T08:30:55.333Z,0.1
2019-03-01T08:32:05.901Z,0.1
2019-03-01T08:33:15.583Z,0.4
2019-03-01T08:34:25.164Z,0.2
2019-03-01T08:35:34.699Z,0.1
2019-03-01T08:36:44.265Z,0.2
2019-03-01T08:37:54.346Z,0.1
2019-03-01T08:39:04.698Z,0.1
2019-03-01T08:40:14.640Z,0.3
2019-03-01T08:41:24.952Z,0.1
2019-03-01T08:42:36.321Z,0.1
2019-03-01T08:43:47.945Z,0.2
2019-03-01T08:44:58.047Z,0.1
2019-03-01T08:46:09.310Z,0.1
2019-03-01T08:47:23.191Z,0.1
2019-03-01T08:48:30.487Z,0.2
2019-03-01T08:49:38.439Z,0.2
2019-03-01T08:50:48.008Z,0.2
2019-03-01T08:51:58.436Z,0.2
2019-03-01T08:53:11.345Z,0.1
2019-03-01T08:54:18.730Z,0.2
2019-03-01T08:55:28.325Z,0.2
2019-03-01T08:56:37.903Z,0.1
2019-03-01T08:57:47.429Z,0.2
2019-03-01T08:58:57.055Z,0.1
2019-03-01T09:00:06.633Z,0.2
2019-03-01T09:01:16.203Z,0.4
2019-03-01T09:02:25.823Z,0.3
2019-03-01T09:03:35.311Z,0.2
2019-03-01T09:04:50.817Z,0.4
2019-03-01T09:05:55.460Z,0.2
2019-03-01T09:07:05.056Z,0.6
2019-03-01T09:08:14.607Z,0.4
2019-03-01T09:09:24.945Z,0.4
2019-03-01T09:10:33.784Z,0.4
2019-03-01T09:11:44.563Z,0.3
2019-03-01T09:12:53.853Z,0.4
2019-03-01T09:14:03.547Z,0.2
2019-03-01T09:15:13.105Z,0.5
2019-03-01T09:16:22.655Z,0.1
2019-03-01T09:17:32.224Z,0.2
2019-03-01T09:18:41.740Z,0.2
2019-03-01T09:19:51.363Z,0.4
2019-03-01T09:21:05.315Z,0.1
2019-03-01T09:22:11.353Z,0.1
2019-03-01T09:23:25.198Z,0.2
2019-03-01T09:24:31.330Z,0.3
2019-03-01T09:25:41.304Z,0.3
2019-03-01T09:26:51.508Z,0.4
2019-03-01T09:28:00.819Z,0.2
2019-03-01T09:29:12.643Z,0.1
2019-03-01T09:30:20.854Z,0.2
2019-03-01T09:31:30.361Z,0.4
2019-03-01T09:32:39.873Z,0.1
2019-03-01T09:33:49.371Z,0.6
2019-03-01T09:34:58.924Z,0.1
2019-03-01T09:36:08.433Z,0.2
2019-03-01T09:37:17.944Z,0.2
2019-03-01T09:38:27.466Z,0.4
2019-03-01T09:39:36.975Z,0.2
2019-03-01T09:40:46.485Z,0.1
2019-03-01T09:42:02.820Z,0.2
2019-03-01T09:43:06.487Z,0.2
2019-03-01T09:44:16.016Z,0.2
2019-03-01T09:45:25.518Z,0.2
2019-03-01T09:46:35.019Z,0.2
2019-03-01T09:47:44.518Z,0.3
2019-03-01T09:48:54.026Z,0.2
2019-03-01T09:50:03.527Z,0.1
2019-03-01T09:51:13.023Z,0.2
2019-03-01T09:52:23.500Z,0.2
2019-03-01T09:53:34.004Z,0.2
2019-03-01T09:54:43.514Z,0.2
2019-03-01T09:55:53.027Z,0.3
2019-03-01T09:57:02.536Z,0.2
2019-03-01T09:58:12.039Z,0.3
2019-03-01T09:59:21.546Z,0.2
2019-03-01T10:00:31.079Z,0.2
2019-03-01T10:01:40.583Z,0.1
2019-03-01T10:02:50.092Z,0.2
2019-03-01T10:03:59.595Z,0.3
2019-03-01T10:05:09.116Z,0.1
2019-03-01T10:06:18.656Z,0.1
2019-03-01T10:07:28.217Z,0.2
2019-03-01T10:08:37.770Z,0.1
2019-03-01T10:09:47.390Z,0.2
2019-03-01T10:10:56.973Z,0.2
2019-03-01T10:12:06.543Z,0.1
2019-03-01T10:13:16.092Z,0.1
2019-03-01T10:14:25.707Z,0.2
2019-03-01T10:15:35.299Z,0.2
2019-03-01T10:16:44.882Z,0.2
2019-03-01T10:17:54.462Z,0.2
2019-03-01T10:19:04.062Z,0.2
2019-03-01T10:20:14.667Z,0.1
2019-03-01T10:21:24.183Z,0.2
2019-03-01T10:22:33.697Z,0.1
2019-03-01T10:23:43.200Z,0.2
2019-03-01T10:24:52.706Z,0.1
2019-03-01T10:26:02.228Z,0.1
2019-03-01T10:27:11.738Z,0.1
2019-03-01T10:28:21.255Z,0.1
2019-03-01T10:29:30.773Z,0.1
2019-03-01T10:30:40.297Z,0.2
2019-03-01T10:31:49.801Z,0.2
2019-03-01T10:32:59.302Z,0.1
2019-03-01T10:34:08.808Z,0.1
2019-03-01T10:35:18.330Z,0.1
2019-03-01T10:36:27.830Z,0.2
2019-03-01T10:37:37.334Z,0.1
2019-03-01T10:38:46.843Z,0.2
2019-03-01T10:39:56.320Z,0.2
2019-03-01T10:41:05.849Z,0.2
2019-03-01T10:42:15.362Z,0.2
2019-03-01T10:43:24.867Z,0.1
2019-03-01T10:44:34.375Z,0.1
2019-03-01T10:45:43.944Z,0.2
2019-03-01T10:46:53.439Z,0.1
2019-03-01T10:48:02.941Z,0.1
2019-03-01T10:49:12.467Z,0.1
2019-03-01T10:50:22.001Z,0
2019-03-01T10:51:31.503Z,0
2019-03-01T10:52:41.018Z,0.2
2019-03-01T10:53:50.518Z,0.3
2019-03-01T10:55:00.024Z,0.1
2019-03-01T10:56:09.556Z,0.1
2019-03-01T10:57:19.058Z,0.1
2019-03-01T10:58:28.560Z,0.2
2019-03-01T10:59:38.069Z,0.1
2019-03-01T11:00:47.589Z,0.1
2019-03-01T11:01:57.106Z,0.1
2019-03-01T11:03:07.600Z,0.1
2019-03-01T11:04:17.100Z,0.1
2019-03-01T11:05:26.618Z,0.1
2019-03-01T11:06:36.126Z,0.1
2019-03-01T11:07:45.622Z,0.1
2019-03-01T11:08:55.159Z,0.2
2019-03-01T11:10:04.670Z,0.1
2019-03-01T11:11:14.191Z,0.1
2019-03-01T11:12:23.693Z,0.2
2019-03-01T11:13:33.195Z,0.1
2019-03-01T11:14:42.700Z,0.2
2019-03-01T11:15:52.218Z,0.1
2019-03-01T11:17:01.719Z,0.1
2019-03-01T11:18:11.225Z,0.2
2019-03-01T11:19:20.763Z,0.2
2019-03-01T11:20:30.263Z,0.1
2019-03-01T11:21:39.774Z,0.1
2019-03-01T11:22:49.463Z,0.1
2019-03-01T11:23:58.785Z,0.1
2019-03-01T11:25:08.284Z,0.1
2019-03-01T11:26:17.818Z,0.1
2019-03-01T11:27:27.306Z,0
2019-03-01T11:28:36.804Z,0.1
2019-03-01T11:29:46.384Z,0.1
2019-03-01T11:30:55.909Z,0.1
2019-03-01T11:32:05.414Z,0.1
2019-03-01T11:33:14.916Z,0.1
2019-03-01T11:34:24.430Z,0.1
2019-03-01T11:35:33.940Z,0.1
2019-03-01T11:36:43.456Z,0.1
2019-03-01T11:37:52.961Z,0.2
2019-03-01T11:39:02.466Z,0.1
2019-03-01T11:40:11.976Z,0.2
2019-03-01T11:41:21.501Z,0.3
2019-03-01T11:42:31.003Z,0.1
2019-03-01T11:43:40.494Z,0.2
2019-03-01T11:44:50.002Z,0.1
2019-03-01T11:46:00.641Z,0.2
2019-03-01T11:47:10.031Z,0.1
2019-03-01T11:48:19.696Z,0.1
2019-03-01T11:49:29.202Z,0.1
2019-03-01T11:50:38.713Z,0.2
2019-03-01T11:51:48.229Z,0
2019-03-01T11:52:57.735Z,0.3
2019-03-01T11:54:07.240Z,0.1
2019-03-01T11:55:16.743Z,0
2019-03-01T11:56:26.261Z,0
2019-03-01T11:57:35.766Z,0.2
2019-03-01T11:58:45.284Z,0.1
2019-03-01T11:59:54.786Z,0.2
2019-03-01T12:01:04.291Z,0.1
2019-03-01T12:02:13.809Z,0.1
2019-03-01T12:03:23.318Z,0.1
2019-03-01T12:04:32.819Z,0
2019-03-01T12:05:42.324Z,0.1
2019-03-01T12:06:51.834Z,0.2
2019-03-01T12:08:01.340Z,0
2019-03-01T12:09:10.843Z,0.1
2019-03-01T12:10:20.356Z,0.1
2019-03-01T12:11:29.874Z,0
2019-03-01T12:12:39.380Z,0.1
2019-03-01T12:13:48.890Z,0.1
2019-03-01T12:14:58.397Z,0.1
2019-03-01T12:16:07.909Z,0.1
2019-03-01T12:17:17.431Z,0.1
2019-03-01T12:18:26.933Z,0
2019-03-01T12:19:36.435Z,0.1
2019-03-01T12:20:45.937Z,0
2019-03-01T12:21:55.458Z,0.1
2019-03-01T12:23:04.967Z,0.1
2019-03-01T12:24:14.470Z,0.1
2019-03-01T12:25:23.981Z,0.2
2019-03-01T12:26:33.496Z,0.1
2019-03-01T12:27:42.990Z,0.1
2019-03-01T12:28:52.491Z,0.1
2019-03-01T12:30:01.997Z,0
2019-03-01T12:31:11.499Z,0.2
2019-03-01T12:32:21.013Z,0.1
2019-03-01T12:33:30.523Z,0
2019-03-01T12:34:40.024Z,0.1
2019-03-01T12:35:49.528Z,0.1
2019-03-01T12:36:59.083Z,0
2019-03-01T12:38:08.556Z,0.1
2019-03-01T12:39:18.065Z,0.1
2019-03-01T12:40:27.574Z,0.1
2019-03-01T12:41:37.096Z,0
2019-03-01T12:42:47.593Z,0.1
2019-03-01T12:43:57.123Z,0
2019-03-01T12:45:06.625Z,0.1
2019-03-01T12:46:16.137Z,0.1
2019-03-01T12:47:26.658Z,0.1
2019-03-01T12:48:36.161Z,0.2
2019-03-01T12:49:45.673Z,0.2
2019-03-01T12:50:55.181Z,0.1
2019-03-01T12:52:04.701Z,0.2
2019-03-01T12:53:14.207Z,0.1
2019-03-01T12:54:23.712Z,0.1
2019-03-01T12:55:33.221Z,0.1
2019-03-01T12:56:42.753Z,0.1
2019-03-01T12:57:52.251Z,0.1
2019-03-01T12:59:01.754Z,0.1
2019-03-01T13:00:11.251Z,0.1
2019-03-01T13:01:20.751Z,0
2019-03-01T13:02:30.307Z,0.1
2019-03-01T13:03:40.522Z,0
2019-03-01T13:04:49.834Z,0.1
2019-03-01T13:06:00.565Z,0.2
2019-03-01T13:07:10.473Z,0.1
2019-03-01T13:08:19.860Z,0
2019-03-01T13:09:29.355Z,0.1
2019-03-01T13:10:40.115Z,0.1
2019-03-01T13:11:51.301Z,0.1
2019-03-01T13:13:01.983Z,0.1
2019-03-01T13:14:10.343Z,0.1
2019-03-01T13:15:19.839Z,0.2
2019-03-01T13:16:29.349Z,0.1
2019-03-01T13:17:38.843Z,0.1
2019-03-01T13:18:51.241Z,0.1
2019-03-01T13:20:01.012Z,0.1
2019-03-01T13:21:09.553Z,0.1
2019-03-01T13:22:18.855Z,0.1
2019-03-01T13:23:28.364Z,0.1
2019-03-01T13:24:37.867Z,0.1
2019-03-01T13:25:47.366Z,0.1
2019-03-01T13:26:56.897Z,0.1
2019-03-01T13:28:06.400Z,0.2
2019-03-01T13:29:19.002Z,0.1
2019-03-01T13:30:26.415Z,0.1
2019-03-01T13:31:35.933Z,0.1
2019-03-01T13:32:45.473Z,0.1
2019-03-01T13:33:54.991Z,0.1
2019-03-01T13:35:04.506Z,0.1
2019-03-01T13:36:13.993Z,0.1
2019-03-01T13:37:23.523Z,0.2
2019-03-01T13:38:33.789Z,0.1
2019-03-01T13:39:44.931Z,0.1
2019-03-01T13:40:54.263Z,0.2
2019-03-01T13:42:03.604Z,0.2
2019-03-01T13:43:13.109Z,0.1
2019-03-01T13:44:22.621Z,0.2
2019-03-01T13:45:32.133Z,0.2
2019-03-01T13:46:41.648Z,0.1
2019-03-01T13:47:51.171Z,0.1
2019-03-01T13:49:00.671Z,0.1
2019-03-01T13:50:10.175Z,0.1
2019-03-01T13:51:19.683Z,0.1
2019-03-01T13:52:29.955Z,0.1
2019-03-01T13:53:48.504Z,0.2
2019-03-01T13:54:52.230Z,0.1
2019-03-01T13:56:01.125Z,0.1
2019-03-01T13:57:11.412Z,0.1
2019-03-01T13:58:26.607Z,0
2019-03-01T13:59:31.273Z,0.1
2019-03-01T14:00:40.785Z,0.1
2019-03-01T14:01:50.297Z,0.1
2019-03-01T14:02:59.834Z,0.1
2019-03-01T14:04:09.544Z,0.1
2019-03-01T14:05:18.843Z,0.2
2019-03-01T14:06:28.370Z,0.1
2019-03-01T14:07:37.946Z,0.1
2019-03-01T14:08:47.469Z,0.1
2019-03-01T14:09:56.985Z,0.1
2019-03-01T14:11:06.490Z,0.2
2019-03-01T14:12:16.062Z,0.1
2019-03-01T14:13:25.595Z,0.2
2019-03-01T14:14:35.104Z,0.1
2019-03-01T14:15:44.599Z,0.1
2019-03-01T14:16:54.116Z,0
2019-03-01T14:18:03.648Z,0.2
2019-03-01T14:19:13.177Z,0.1
2019-03-01T14:20:22.666Z,0.2
2019-03-01T14:21:32.976Z,0.1
2019-03-01T14:22:43.984Z,0.3
2019-03-01T14:23:53.181Z,0.1
2019-03-01T14:25:05.173Z,0.2
2019-03-01T14:26:15.015Z,0.2
2019-03-01T14:27:26.314Z,0.2
2019-03-01T14:28:34.216Z,0.2
2019-03-01T14:29:43.734Z,0.3
2019-03-01T14:30:53.270Z,0.2
2019-03-01T14:32:02.788Z,0.1
2019-03-01T14:33:12.335Z,0.2
2019-03-01T14:34:21.907Z,0.1
2019-03-01T14:35:31.399Z,0.1
2019-03-01T14:36:43.096Z,0.2
2019-03-01T14:37:55.128Z,0.1
2019-03-01T14:39:03.435Z,0.2
2019-03-01T14:40:12.426Z,0.2
2019-03-01T14:41:21.953Z,0.1
2019-03-01T14:42:31.483Z,0.1
2019-03-01T14:43:40.993Z,0.2
2019-03-01T14:44:50.504Z,0.2
2019-03-01T14:46:00.021Z,0.5
2019-03-01T14:47:09.550Z,0.2
2019-03-01T14:48:19.088Z,0.1
2019-03-01T14:49:28.590Z,0.1
2019-03-01T14:50:38.082Z,0.2
2019-03-01T14:51:47.664Z,0.1
2019-03-01T14:52:58.715Z,0.1
2019-03-01T14:54:09.825Z,0.1
2019-03-01T14:55:19.674Z,0.3
2019-03-01T14:56:31.119Z,0.2
2019-03-01T14:57:39.135Z,0.1
2019-03-01T14:58:48.643Z,0.2
2019-03-01T14:59:58.153Z,0.1
2019-03-01T15:01:07.661Z,0.2
2019-03-01T15:02:17.170Z,0.1
2019-03-01T15:03:26.705Z,0.2
2019-03-01T15:04:36.217Z,0.1
2019-03-01T15:05:45.723Z,0
2019-03-01T15:06:56.179Z,0.3
2019-03-01T15:08:06.411Z,0.2
2019-03-01T15:09:16.833Z,0.2
2019-03-01T15:10:28.692Z,0.2
2019-03-01T15:11:36.252Z,0.1
2019-03-01T15:12:45.796Z,0.1
2019-03-01T15:13:55.316Z,0.1
2019-03-01T15:15:04.835Z,0.2
2019-03-01T15:16:14.362Z,0.1
2019-03-01T15:17:23.863Z,0.2
2019-03-01T15:18:33.461Z,0.1
2019-03-01T15:19:44.495Z,0.1
2019-03-01T15:20:55.818Z,0.2
2019-03-01T15:22:03.994Z,0.1
2019-03-01T15:23:15.027Z,0.1
2019-03-01T15:24:24.088Z,0.4
2019-03-01T15:25:33.802Z,0.2
2019-03-01T15:26:46.112Z,0.1
2019-03-01T15:27:53.832Z,0.3
2019-03-01T15:29:03.375Z,0.2
2019-03-01T15:30:12.862Z,0.2
2019-03-01T15:31:22.372Z,0.1
2019-03-01T15:32:35.118Z,0.2
2019-03-01T15:33:46.436Z,0.2
2019-03-01T15:34:52.914Z,0.2
2019-03-01T15:36:02.428Z,0.3
2019-03-01T15:37:11.955Z,0.1
2019-03-01T15:38:23.737Z,0.1
2019-03-01T15:39:31.051Z,0.2
2019-03-01T15:40:40.569Z,0.1
2019-03-01T15:41:50.099Z,0.2
2019-03-01T15:42:59.607Z,0.2
2019-03-01T15:44:09.141Z,0.3
2019-03-01T15:45:18.652Z,0.1
2019-03-01T15:46:28.239Z,0.2
2019-03-01T15:47:37.761Z,0.2
2019-03-01T15:48:47.293Z,0.2
2019-03-01T15:49:56.818Z,0.1
2019-03-01T15:51:06.822Z,0.2
2019-03-01T15:52:15.807Z,0.2
2019-03-01T15:53:26.031Z,0.3
2019-03-01T15:54:35.743Z,0.2
2019-03-01T15:55:45.349Z,0.2
2019-03-01T15:56:54.863Z,0.1
2019-03-01T15:58:04.371Z,0.2
2019-03-01T15:59:13.922Z,0.2
2019-03-01T16:00:25.438Z,0.2
2019-03-01T16:01:33.949Z,0.1